Time;durP1;ratioP1;P1;durP2;ratioP2;P2;SDS_P1;SDS_P2;PMS_P1;PMS_P2;Temp;Humidity;BMP_temperature;BMP_pressure;BME280_temperature;BME280_humidity;BME280_pressure;Samples;Min_cycle;Max_cycle;Signal;HPM_P1;HPM_P2
2021/07/17 00:00:57;;;;;;;2.30;1.00;;;17.50;84.20;;;;;;4882168;29;20044;-78
2021/07/17 00:03:25;;;;;;;1.42;0.93;;;18.00;84.40;;;;;;4915739;29;20452;-81
2021/07/17 00:05:51;;;;;;;2.38;1.20;;;18.00;84.50;;;;;;4912181;29;20048;-81
2021/07/17 00:08:20;;;;;;;2.33;1.40;;;18.00;84.50;;;;;;4882668;29;20040;-81
2021/07/17 00:10:49;;;;;;;1.60;1.02;;;18.00;84.50;;;;;;4861612;29;20040;-81
2021/07/17 00:13:16;;;;;;;2.17;1.30;;;17.50;84.30;;;;;;4860522;29;20081;-78
2021/07/17 00:15:42;;;;;;;3.30;1.50;;;18.00;84.50;;;;;;4845371;29;20088;-79
2021/07/17 00:18:08;;;;;;;3.03;1.48;;;17.90;84.50;;;;;;4844863;29;20041;-77
2021/07/17 00:20:35;;;;;;;2.35;1.10;;;18.00;84.60;;;;;;4876126;29;20039;-79
2021/07/17 00:23:01;;;;;;;2.22;1.15;;;18.00;84.60;;;;;;4860433;29;20041;-79
2021/07/17 00:25:27;;;;;;;2.25;1.13;;;18.00;84.70;;;;;;4876079;29;20499;-78
2021/07/17 00:27:54;;;;;;;2.22;1.25;;;18.00;84.70;;;;;;4876065;29;20110;-80
2021/07/17 00:30:27;;;;;;;2.13;1.10;;;17.90;84.70;;;;;;4844982;29;20040;-82
2021/07/17 00:32:53;;;;;;;1.63;1.10;;;17.40;84.40;;;;;;4860188;29;20037;-79
2021/07/17 00:35:19;;;;;;;2.45;1.20;;;18.00;84.70;;;;;;4829756;29;20056;-78
2021/07/17 00:37:47;;;;;;;3.15;1.42;;;18.00;84.80;;;;;;4844704;29;20041;-79
2021/07/17 00:40:14;;;;;;;1.83;0.93;;;18.00;84.80;;;;;;4845425;29;20181;-79
2021/07/17 00:42:43;;;;;;;1.52;1.15;;;17.80;84.70;;;;;;4863769;29;20080;-80
2021/07/17 00:45:10;;;;;;;1.42;1.00;;;17.90;84.80;;;;;;4882910;29;20032;-79
2021/07/17 00:47:37;;;;;;;2.58;1.40;;;17.90;84.80;;;;;;4900545;29;20048;-80
2021/07/17 00:50:06;;;;;;;2.55;1.58;;;17.80;84.80;;;;;;4899626;29;20040;-78
2021/07/17 00:52:33;;;;;;;2.33;1.38;;;17.80;84.80;;;;;;4914774;29;20042;-80
2021/07/17 00:54:59;;;;;;;2.55;1.25;;;17.80;84.90;;;;;;4914721;29;20051;-79
2021/07/17 00:57:26;;;;;;;3.85;1.73;;;17.80;85.00;;;;;;4915799;29;20390;-80
2021/07/17 00:59:54;;;;;;;2.65;1.67;;;17.60;84.80;;;;;;4915216;29;20049;-79
2021/07/17 01:02:23;;;;;;;2.33;1.25;;;17.80;85.00;;;;;;4913790;29;20040;-79
2021/07/17 01:04:49;;;;;;;3.20;1.42;;;17.70;85.00;;;;;;4885699;29;20041;-79
2021/07/17 01:07:17;;;;;;;5.40;1.55;;;17.70;85.00;;;;;;4900874;29;20033;-79
2021/07/17 01:09:43;;;;;;;3.80;1.60;;;17.80;85.10;;;;;;4917113;29;20063;-79
2021/07/17 01:12:10;;;;;;;3.92;1.50;;;17.70;85.10;;;;;;4917658;29;20040;-79
2021/07/17 01:14:38;;;;;;;1.67;1.25;;;17.70;85.10;;;;;;4917171;29;20502;-79
2021/07/17 01:17:04;;;;;;;1.52;1.10;;;17.70;85.20;;;;;;4901553;29;20539;-82
2021/07/17 01:19:30;;;;;;;2.08;1.20;;;17.70;85.20;;;;;;4885534;29;20040;-81
2021/07/17 01:21:56;;;;;;;2.83;1.45;;;17.70;85.20;;;;;;4901094;29;20526;-80
2021/07/17 01:24:24;;;;;;;2.85;1.30;;;17.80;85.40;;;;;;4901278;29;20044;-79
2021/07/17 01:26:51;;;;;;;2.28;1.35;;;17.10;85.00;;;;;;4915659;29;20040;-78
2021/07/17 01:29:17;;;;;;;2.72;1.33;;;17.60;85.30;;;;;;4918066;29;20483;-79
2021/07/17 01:31:44;;;;;;;3.45;1.20;;;17.60;85.30;;;;;;4918834;29;20056;-80
2021/07/17 01:34:10;;;;;;;2.95;1.40;;;17.60;85.40;;;;;;4901273;29;20530;-80
2021/07/17 01:36:38;;;;;;;2.83;1.25;;;17.60;85.50;;;;;;4901374;29;20035;-79
2021/07/17 01:39:05;;;;;;;3.08;1.58;;;17.50;85.40;;;;;;4916640;29;20554;-79
2021/07/17 01:41:34;;;;;;;3.20;1.48;;;17.50;85.50;;;;;;4915409;29;20096;-78
2021/07/17 01:44:01;;;;;;;2.10;1.48;;;17.50;85.50;;;;;;4885291;29;21016;-78
2021/07/17 01:46:28;;;;;;;1.98;1.35;;;17.50;85.60;;;;;;4916589;29;20045;-78
2021/07/17 01:48:55;;;;;;;2.42;1.40;;;17.50;85.60;;;;;;4918301;29;20032;-78
2021/07/17 01:51:22;;;;;;;2.47;1.35;;;17.50;85.60;;;;;;4901222;29;20391;-78
2021/07/17 01:53:50;;;;;;;2.25;1.10;;;17.50;85.60;;;;;;4916393;29;20144;-78
2021/07/17 01:56:16;;;;;;;1.35;1.02;;;17.40;85.60;;;;;;4900629;29;20486;-78
2021/07/17 01:58:43;;;;;;;0.90;0.88;;;17.50;85.60;;;;;;4900703;29;20044;-78
2021/07/17 02:01:10;;;;;;;3.72;1.20;;;17.50;85.60;;;;;;4916374;29;20040;-78
2021/07/17 02:03:45;;;;;;;1.55;0.93;;;17.40;85.60;;;;;;4900542;29;20078;-78
2021/07/17 02:06:13;;;;;;;1.17;0.98;;;17.40;85.60;;;;;;4916624;29;20115;-78
2021/07/17 02:08:41;;;;;;;2.88;1.35;;;17.40;85.60;;;;;;4900509;29;20531;-78
2021/07/17 02:11:09;;;;;;;1.42;0.95;;;17.40;85.60;;;;;;4900162;29;20032;-78
2021/07/17 02:13:35;;;;;;;1.75;1.10;;;17.40;85.60;;;;;;4915910;29;20471;-78
2021/07/17 02:16:04;;;;;;;1.48;1.02;;;17.40;85.70;;;;;;4900466;29;20032;-78
2021/07/17 02:18:32;;;;;;;3.70;1.40;;;17.40;85.70;;;;;;4917203;29;20047;-78
2021/07/17 02:21:01;;;;;;;2.17;1.17;;;17.40;85.70;;;;;;4916205;29;20494;-77
2021/07/17 02:23:28;;;;;;;1.63;1.08;;;17.30;86.30;;;;;;4900190;29;20056;-78
2021/07/17 02:25:54;;;;;;;4.03;1.38;;;17.30;85.80;;;;;;4917128;29;20129;-78
2021/07/17 02:28:20;;;;;;;3.90;1.45;;;17.30;85.80;;;;;;4917023;29;20037;-78
2021/07/17 02:30:48;;;;;;;1.98;1.20;;;17.30;85.80;;;;;;4915841;29;20041;-78
2021/07/17 02:33:15;;;;;;;3.55;1.48;;;17.30;85.80;;;;;;4917119;29;20118;-78
2021/07/17 02:35:40;;;;;;;1.83;1.00;;;17.30;85.80;;;;;;4915979;29;20507;-78
2021/07/17 02:38:06;;;;;;;1.95;1.13;;;17.20;85.70;;;;;;4917005;29;20032;-78
2021/07/17 02:40:32;;;;;;;1.77;1.05;;;17.30;85.80;;;;;;4917025;29;20052;-78
2021/07/17 02:42:58;;;;;;;2.70;1.45;;;17.30;85.80;;;;;;4899853;29;20048;-78
2021/07/17 02:45:25;;;;;;;3.78;1.20;;;17.30;85.80;;;;;;4899880;29;20454;-78
2021/07/17 02:47:51;;;;;;;1.88;1.10;;;17.30;85.80;;;;;;4915608;29;20043;-78
2021/07/17 02:50:18;;;;;;;1.63;1.10;;;17.20;85.80;;;;;;4916975;29;20344;-78
2021/07/17 02:52:45;;;;;;;2.28;1.00;;;17.30;85.80;;;;;;4915500;29;20127;-78
2021/07/17 02:55:11;;;;;;;1.65;1.00;;;17.10;85.70;;;;;;4899577;29;20042;-78
2021/07/17 02:57:37;;;;;;;2.90;1.25;;;17.30;85.90;;;;;;4916870;29;20479;-78
2021/07/17 03:00:08;;;;;;;2.17;1.27;;;17.20;85.90;;;;;;4899621;29;20040;-78
2021/07/17 03:02:34;;;;;;;1.73;0.93;;;17.30;86.00;;;;;;4915537;29;20044;-78
2021/07/17 03:05:00;;;;;;;2.00;1.20;;;17.20;85.90;;;;;;4916458;29;20092;-78
2021/07/17 03:07:27;;;;;;;1.80;1.10;;;17.20;86.00;;;;;;4916325;29;20087;-78
2021/07/17 03:09:53;;;;;;;1.92;1.10;;;17.20;86.00;;;;;;4916213;29;20931;-78
2021/07/17 03:12:18;;;;;;;2.22;1.05;;;17.20;86.00;;;;;;4918618;29;20119;-78
2021/07/17 03:14:45;;;;;;;1.85;1.20;;;17.20;86.10;;;;;;4899607;29;20184;-78
2021/07/17 03:17:13;;;;;;;2.35;1.00;;;17.20;86.10;;;;;;4883560;29;20032;-79
2021/07/17 03:19:39;;;;;;;1.50;1.00;;;17.10;86.10;;;;;;4899769;29;20047;-78
2021/07/17 03:22:07;;;;;;;2.15;1.08;;;17.10;86.10;;;;;;4915813;29;20378;-78
2021/07/17 03:24:33;;;;;;;1.45;1.08;;;17.10;86.20;;;;;;4916741;29;20058;-78
2021/07/17 03:26:59;;;;;;;2.97;1.38;;;17.10;86.20;;;;;;4899370;29;20368;-78
2021/07/17 03:29:25;;;;;;;2.78;1.10;;;16.90;86.20;;;;;;4915038;29;20128;-78
2021/07/17 03:31:51;;;;;;;2.60;1.20;;;17.00;86.30;;;;;;4899293;29;20064;-78
2021/07/17 03:34:17;;;;;;;1.23;1.00;;;17.00;86.30;;;;;;4913761;29;20037;-78
2021/07/17 03:36:44;;;;;;;1.38;0.90;;;17.10;86.40;;;;;;4914901;29;20040;-79
2021/07/17 03:39:11;;;;;;;2.75;1.08;;;17.00;86.40;;;;;;4899061;29;20036;-79
2021/07/17 03:41:37;;;;;;;1.83;0.80;;;17.00;86.50;;;;;;4914706;29;20186;-80
2021/07/17 03:44:07;;;;;;;1.65;0.80;;;17.00;86.60;;;;;;4916310;29;20048;-79
2021/07/17 03:46:33;;;;;;;1.40;0.85;;;16.90;86.60;;;;;;4916281;29;20553;-78
2021/07/17 03:48:59;;;;;;;2.05;0.90;;;16.90;86.60;;;;;;4914957;29;20056;-78
2021/07/17 03:51:25;;;;;;;1.35;0.90;;;16.90;86.60;;;;;;4916516;29;20062;-78
2021/07/17 03:53:52;;;;;;;1.52;0.80;;;16.90;86.70;;;;;;4898614;29;20040;-78
2021/07/17 03:56:19;;;;;;;2.65;1.05;;;16.80;86.80;;;;;;4898982;29;20044;-78
2021/07/17 03:58:45;;;;;;;1.83;1.10;;;16.80;86.90;;;;;;4898720;29;20122;-79
2021/07/17 04:01:11;;;;;;;1.35;1.00;;;16.80;87.00;;;;;;4899418;29;20072;-78
2021/07/17 04:03:37;;;;;;;1.55;0.95;;;16.80;87.00;;;;;;4914896;29;20157;-78
2021/07/17 04:06:04;;;;;;;2.10;1.10;;;16.80;87.10;;;;;;4915983;29;20036;-78
2021/07/17 04:08:30;;;;;;;0.85;0.75;;;16.70;87.10;;;;;;4916079;29;20063;-78
2021/07/17 04:10:56;;;;;;;1.17;0.90;;;16.60;87.10;;;;;;4883245;29;20084;-78
2021/07/17 04:13:22;;;;;;;2.60;0.90;;;16.70;87.20;;;;;;4915999;29;20095;-78
2021/07/17 04:15:49;;;;;;;1.25;0.90;;;16.70;87.30;;;;;;4914602;29;20130;-78
2021/07/17 04:18:14;;;;;;;1.13;0.85;;;16.70;87.30;;;;;;4915744;29;20865;-78
2021/07/17 04:20:40;;;;;;;1.17;0.80;;;16.60;87.30;;;;;;4914481;29;20403;-78
2021/07/17 04:23:06;;;;;;;2.00;1.17;;;16.60;87.30;;;;;;4913461;29;20052;-78
2021/07/17 04:25:32;;;;;;;1.73;0.90;;;16.60;87.30;;;;;;4898462;29;20039;-78
2021/07/17 04:28:00;;;;;;;2.22;0.85;;;16.60;87.40;;;;;;4882458;29;20044;-78
2021/07/17 04:30:26;;;;;;;3.22;1.10;;;16.60;87.40;;;;;;4914885;29;20074;-78
2021/07/17 04:32:52;;;;;;;4.00;1.20;;;16.60;87.30;;;;;;4882916;29;20032;-78
2021/07/17 04:35:18;;;;;;;1.42;0.90;;;16.60;87.30;;;;;;4898409;29;20111;-78
2021/07/17 04:37:45;;;;;;;2.35;0.98;;;16.60;87.40;;;;;;4898871;29;20052;-78
2021/07/17 04:40:12;;;;;;;2.38;1.02;;;16.60;87.40;;;;;;4912616;29;20067;-79
2021/07/17 04:42:39;;;;;;;1.88;1.00;;;16.60;87.40;;;;;;4915360;29;20058;-80
2021/07/17 04:45:07;;;;;;;1.25;0.88;;;16.50;87.40;;;;;;4898171;29;20025;-78
2021/07/17 04:47:34;;;;;;;3.58;1.27;;;16.50;87.50;;;;;;4915233;29;20047;-79
2021/07/17 04:50:02;;;;;;;3.03;1.30;;;16.50;87.50;;;;;;4914105;29;20040;-79
2021/07/17 04:52:29;;;;;;;2.13;1.10;;;16.20;87.40;;;;;;4914064;29;20032;-79
2021/07/17 04:54:56;;;;;;;1.65;1.20;;;16.50;87.60;;;;;;4914705;29;20443;-78
2021/07/17 04:57:22;;;;;;;3.40;1.17;;;16.60;87.60;;;;;;4914989;29;20036;-79
2021/07/17 04:59:49;;;;;;;3.05;1.25;;;16.30;87.40;;;;;;4897788;29;20403;-78
2021/07/17 05:02:15;;;;;;;2.03;0.93;;;16.60;87.60;;;;;;4914853;29;20043;-80
2021/07/17 05:04:41;;;;;;;1.27;0.80;;;16.50;87.50;;;;;;4914771;29;20048;-79
2021/07/17 05:07:07;;;;;;;1.77;0.93;;;16.60;87.40;;;;;;4915463;29;20493;-79
2021/07/17 05:09:33;;;;;;;2.33;1.23;;;16.60;87.40;;;;;;4915392;29;20469;-78
2021/07/17 05:11:59;;;;;;;0.68;0.68;;;16.60;87.30;;;;;;4898439;29;20036;-79
2021/07/17 05:14:25;;;;;;;2.72;1.40;;;16.60;87.30;;;;;;4897725;29;20220;-78
2021/07/17 05:16:51;;;;;;;2.63;1.13;;;16.70;87.30;;;;;;4897502;29;20036;-80
2021/07/17 05:19:18;;;;;;;1.38;1.00;;;16.70;87.30;;;;;;4897796;29;20602;-78
2021/07/17 05:21:44;;;;;;;2.33;1.10;;;16.70;87.30;;;;;;4897702;29;20092;-77
2021/07/17 05:24:10;;;;;;;1.75;1.20;;;16.60;87.10;;;;;;4898462;29;20144;-78
2021/07/17 05:26:36;;;;;;;1.95;0.93;;;16.50;87.10;;;;;;4914245;29;20462;-78
2021/07/17 05:29:03;;;;;;;2.88;1.10;;;16.80;87.20;;;;;;4897924;29;20034;-79
2021/07/17 05:31:29;;;;;;;1.90;1.10;;;16.90;87.10;;;;;;4894878;29;20033;-79
2021/07/17 05:33:56;;;;;;;1.00;0.90;;;17.00;87.00;;;;;;4914797;29;20036;-79
2021/07/17 05:36:23;;;;;;;1.85;0.82;;;17.00;86.90;;;;;;4913604;29;20040;-79
2021/07/17 05:38:48;;;;;;;2.13;1.17;;;17.10;86.80;;;;;;4897708;29;20096;-79
2021/07/17 05:41:14;;;;;;;1.67;1.02;;;17.20;87.30;;;;;;4897485;29;20040;-79
2021/07/17 05:43:41;;;;;;;1.55;1.02;;;17.10;86.50;;;;;;4913278;29;20071;-79
2021/07/17 05:46:07;;;;;;;1.98;0.85;;;17.10;86.40;;;;;;4912615;29;20060;-79
2021/07/17 05:48:35;;;;;;;2.10;1.20;;;17.40;86.40;;;;;;4881961;29;20044;-80
2021/07/17 05:51:01;;;;;;;4.15;1.10;;;17.50;86.30;;;;;;4859127;29;20141;-78
2021/07/17 05:53:28;;;;;;;1.75;1.00;;;17.40;86.30;;;;;;4845193;29;20045;-79
2021/07/17 05:55:58;;;;;;;1.60;0.90;;;17.30;86.20;;;;;;4846968;29;20037;-78
2021/07/17 05:58:24;;;;;;;1.15;0.80;;;17.50;86.30;;;;;;4846904;29;20041;-78
2021/07/17 06:00:49;;;;;;;1.23;1.02;;;17.60;86.40;;;;;;4862427;29;20490;-79
2021/07/17 06:03:15;;;;;;;1.42;0.85;;;17.60;86.40;;;;;;4846726;29;20049;-78
2021/07/17 06:05:41;;;;;;;2.20;0.90;;;17.60;86.30;;;;;;4847212;29;20499;-79
2021/07/17 06:08:09;;;;;;;2.10;0.90;;;17.70;86.30;;;;;;4862296;29;20045;-79
2021/07/17 06:10:36;;;;;;;1.80;1.00;;;17.80;86.30;;;;;;4846836;29;20061;-79
2021/07/17 06:13:05;;;;;;;1.50;1.00;;;17.70;86.10;;;;;;4862114;29;20041;-79
2021/07/17 06:15:31;;;;;;;1.73;1.10;;;17.80;86.10;;;;;;4853014;29;20056;-78
2021/07/17 06:17:58;;;;;;;1.30;0.93;;;17.60;86.60;;;;;;4825188;29;20084;-79
2021/07/17 06:20:25;;;;;;;1.27;0.98;;;18.00;86.10;;;;;;4839811;29;20117;-78
2021/07/17 06:22:51;;;;;;;2.05;1.05;;;17.90;85.90;;;;;;4874025;29;20049;-78
2021/07/17 06:25:17;;;;;;;1.20;0.80;;;18.10;86.00;;;;;;4884455;29;20040;-78
2021/07/17 06:27:43;;;;;;;1.55;0.80;;;18.20;85.80;;;;;;4900335;29;20448;-79
2021/07/17 06:30:10;;;;;;;1.42;0.85;;;18.40;85.70;;;;;;4884552;29;20459;-78
2021/07/17 06:32:36;;;;;;;4.03;1.00;;;18.40;85.50;;;;;;4883952;29;20543;-80
2021/07/17 06:35:03;;;;;;;1.52;1.00;;;18.30;85.30;;;;;;4884555;29;20040;-79
2021/07/17 06:37:29;;;;;;;1.27;0.82;;;18.60;85.40;;;;;;4899760;29;20108;-78
2021/07/17 06:39:55;;;;;;;1.63;0.80;;;18.60;85.20;;;;;;4917076;29;20032;-80
2021/07/17 06:42:21;;;;;;;1.45;0.80;;;18.70;85.10;;;;;;4915897;29;20059;-79
2021/07/17 06:44:50;;;;;;;1.95;0.90;;;18.80;85.00;;;;;;4899904;29;20052;-78
2021/07/17 06:47:16;;;;;;;0.93;0.70;;;18.90;84.80;;;;;;4917179;29;20123;-79
2021/07/17 06:49:43;;;;;;;1.33;0.80;;;18.90;84.60;;;;;;4917162;29;20559;-81
2021/07/17 06:52:09;;;;;;;1.42;0.90;;;19.00;84.80;;;;;;4899667;29;20033;-79
2021/07/17 06:54:36;;;;;;;2.08;0.90;;;19.00;84.40;;;;;;4899977;29;20051;-79
2021/07/17 06:57:02;;;;;;;2.47;0.80;;;19.30;84.30;;;;;;4915924;29;20048;-78
2021/07/17 06:59:29;;;;;;;1.10;0.70;;;19.30;84.20;;;;;;4900020;29;20085;-79
2021/07/17 07:01:55;;;;;;;1.20;0.90;;;19.40;84.30;;;;;;4900174;29;20036;-79
2021/07/17 07:04:21;;;;;;;1.10;0.82;;;19.30;84.30;;;;;;4899400;29;20075;-79
2021/07/17 07:06:47;;;;;;;2.35;1.08;;;19.40;84.30;;;;;;4905906;29;20055;-78
2021/07/17 07:09:12;;;;;;;1.88;0.98;;;19.60;84.20;;;;;;4920242;29;20546;-78
2021/07/17 07:11:39;;;;;;;1.40;0.88;;;19.50;83.90;;;;;;4917092;29;20032;-79
2021/07/17 07:14:06;;;;;;;1.35;1.10;;;19.80;83.60;;;;;;4917129;29;20115;-78
2021/07/17 07:16:33;;;;;;;2.10;0.85;;;20.00;83.50;;;;;;4899696;29;20091;-79
2021/07/17 07:18:59;;;;;;;2.10;1.00;;;20.10;83.40;;;;;;4915909;29;20077;-79
2021/07/17 07:21:25;;;;;;;0.75;0.70;;;20.20;83.20;;;;;;4915427;29;20055;-79
2021/07/17 07:23:51;;;;;;;1.52;0.90;;;20.20;83.00;;;;;;4916750;29;20566;-79
2021/07/17 07:26:17;;;;;;;1.38;0.73;;;20.50;82.80;;;;;;4915057;29;20395;-79
2021/07/17 07:28:43;;;;;;;1.13;0.90;;;20.70;82.70;;;;;;4915186;29;20042;-80
2021/07/17 07:31:08;;;;;;;2.72;1.05;;;20.80;82.50;;;;;;4898764;29;20037;-80
2021/07/17 07:33:34;;;;;;;1.95;1.00;;;21.00;82.20;;;;;;4899078;29;20051;-79
2021/07/17 07:36:01;;;;;;;1.55;0.80;;;21.20;82.10;;;;;;4899133;29;20040;-80
2021/07/17 07:38:27;;;;;;;1.40;0.88;;;21.30;81.90;;;;;;4914689;29;20044;-80
2021/07/17 07:40:54;;;;;;;0.70;0.65;;;21.20;81.80;;;;;;4884095;29;20067;-79
2021/07/17 07:43:21;;;;;;;1.48;0.77;;;21.40;81.80;;;;;;4915598;29;20123;-79
2021/07/17 07:45:49;;;;;;;1.67;0.90;;;21.50;81.90;;;;;;4916092;29;20103;-79
2021/07/17 07:48:14;;;;;;;1.35;0.88;;;21.60;81.80;;;;;;4914910;29;20035;-79
2021/07/17 07:50:41;;;;;;;1.50;0.90;;;21.80;81.50;;;;;;4914961;29;20091;-79
2021/07/17 07:53:08;;;;;;;1.02;0.73;;;21.90;81.30;;;;;;4898977;29;20106;-80
2021/07/17 07:55:33;;;;;;;0.82;0.75;;;22.00;81.30;;;;;;4898115;29;20051;-79
2021/07/17 07:58:00;;;;;;;1.92;0.80;;;22.20;81.10;;;;;;4883673;29;20048;-80
2021/07/17 08:00:27;;;;;;;1.25;0.80;;;22.10;80.70;;;;;;4897781;29;20033;-79
2021/07/17 08:02:54;;;;;;;0.70;0.60;;;22.40;80.80;;;;;;4883200;29;20059;-79
2021/07/17 08:05:20;;;;;;;1.73;0.90;;;22.40;80.80;;;;;;4898865;29;20044;-80
2021/07/17 08:07:46;;;;;;;1.45;0.80;;;22.60;80.60;;;;;;4915768;29;20039;-79
2021/07/17 08:10:12;;;;;;;1.38;0.80;;;22.70;80.50;;;;;;4915943;29;20036;-79
2021/07/17 08:12:38;;;;;;;1.65;0.80;;;22.90;80.40;;;;;;4914404;29;20391;-79
2021/07/17 08:15:05;;;;;;;1.48;0.90;;;23.00;80.10;;;;;;4913917;29;20108;-80
2021/07/17 08:17:32;;;;;;;1.80;0.80;;;23.10;79.90;;;;;;4915627;29;20165;-79
2021/07/17 08:19:58;;;;;;;2.15;0.68;;;23.20;79.70;;;;;;4898669;29;20039;-79
2021/07/17 08:22:24;;;;;;;0.90;0.75;;;23.30;79.80;;;;;;4898469;29;20040;-79
2021/07/17 08:24:50;;;;;;;1.40;0.82;;;23.40;79.60;;;;;;4915604;29;20390;-76
2021/07/17 08:27:15;;;;;;;2.25;0.80;;;23.40;79.40;;;;;;4914104;29;20131;-78
2021/07/17 08:29:42;;;;;;;1.98;0.80;;;23.50;79.30;;;;;;4914534;29;20123;-80
2021/07/17 08:32:08;;;;;;;0.70;0.68;;;23.60;79.20;;;;;;4899629;29;20124;-79
2021/07/17 08:34:35;;;;;;;0.73;0.60;;;23.70;79.10;;;;;;4902070;29;20068;-80
2021/07/17 08:37:01;;;;;;;0.90;0.70;;;23.80;78.90;;;;;;4915744;29;20055;-80
2021/07/17 08:39:27;;;;;;;1.27;0.63;;;23.90;78.60;;;;;;4902891;29;20041;-79
2021/07/17 08:41:57;;;;;;;0.50;0.50;;;23.70;78.30;;;;;;4913932;29;20491;-79
2021/07/17 08:44:24;;;;;;;1.33;0.70;;;24.00;78.50;;;;;;4898599;29;20063;-79
2021/07/17 08:46:53;;;;;;;1.08;0.70;;;24.00;78.20;;;;;;4882883;29;20119;-79
2021/07/17 08:49:21;;;;;;;0.93;0.52;;;24.10;78.10;;;;;;4915287;29;20047;-80
2021/07/17 08:51:46;;;;;;;1.13;0.77;;;24.10;78.10;;;;;;4898122;29;20043;-79
2021/07/17 08:54:14;;;;;;;1.40;0.77;;;24.20;77.90;;;;;;4897909;29;20044;-80
2021/07/17 08:56:42;;;;;;;0.60;0.60;;;24.10;77.90;;;;;;4898269;29;20040;-79
2021/07/17 08:59:09;;;;;;;0.95;0.70;;;24.40;77.90;;;;;;4914029;29;20059;-80
2021/07/17 09:01:37;;;;;;;0.82;0.60;;;24.40;77.50;;;;;;4896359;29;20039;-80
2021/07/17 09:04:07;;;;;;;0.55;0.50;;;24.40;77.40;;;;;;4913727;29;20468;-79
2021/07/17 09:06:33;;;;;;;0.70;0.70;;;24.50;77.30;;;;;;4913917;29;20060;-79
2021/07/17 09:08:59;;;;;;;0.50;0.50;;;24.60;77.20;;;;;;4915134;29;20079;-79
2021/07/17 09:11:39;;;;;;;0.60;0.50;;;24.60;77.00;;;;;;4913743;29;20040;-80
2021/07/17 09:14:07;;;;;;;0.68;0.60;;;24.60;76.80;;;;;;4914986;29;20036;-80
2021/07/17 09:16:36;;;;;;;1.05;0.60;;;24.60;76.70;;;;;;4913725;29;20119;-79
2021/07/17 09:19:04;;;;;;;2.05;0.90;;;24.80;76.70;;;;;;4913598;29;20120;-78
2021/07/17 09:21:34;;;;;;;0.70;0.60;;;24.80;76.40;;;;;;4897988;29;20035;-79
2021/07/17 09:24:04;;;;;;;0.45;0.45;;;24.90;76.10;;;;;;4897917;29;20098;-80
2021/07/17 09:26:33;;;;;;;;;;;24.90;76.00;;;;;;4914535;29;20519;-79
2021/07/17 09:29:09;;;;;;;0.50;0.50;;;25.00;76.00;;;;;;4917167;29;20354;-79
2021/07/17 09:31:38;;;;;;;0.40;0.40;;;25.10;76.60;;;;;;4901278;29;20071;-79
2021/07/17 09:34:07;;;;;;;0.40;0.40;;;25.10;75.60;;;;;;4900990;29;20440;-79
2021/07/17 09:36:47;;;;;;;0.30;0.30;;;25.20;75.40;;;;;;4902002;29;20046;-78
2021/07/17 09:39:18;;;;;;;0.70;0.50;;;25.20;75.40;;;;;;4917303;29;20127;-78
2021/07/17 09:41:54;;;;;;;0.80;0.60;;;25.20;75.30;;;;;;4917099;29;20055;-77
2021/07/17 09:44:23;;;;;;;0.80;0.63;;;25.30;75.20;;;;;;4921294;29;20550;-75
2021/07/17 09:46:50;;;;;;;0.52;0.52;;;25.30;74.80;;;;;;4922368;29;20032;-77
2021/07/17 09:49:20;;;;;;;0.70;0.55;;;25.30;74.50;;;;;;4908969;29;20018;-79
2021/07/17 09:51:47;;;;;;;0.80;0.50;;;25.20;74.60;;;;;;4925500;29;20391;-78
2021/07/17 09:54:13;;;;;;;1.10;0.68;;;25.30;74.50;;;;;;4919443;29;20040;-77
2021/07/17 09:56:41;;;;;;;1.17;0.60;;;25.30;74.40;;;;;;4916386;29;20547;-77
2021/07/17 09:59:11;;;;;;;0.68;0.60;;;25.30;74.30;;;;;;4916321;29;20545;-78
2021/07/17 10:01:40;;;;;;;1.10;0.60;;;25.40;74.20;;;;;;4919162;29;20054;-77
2021/07/17 10:04:11;;;;;;;0.50;0.50;;;25.50;73.90;;;;;;4918022;29;20510;-77
2021/07/17 10:06:41;;;;;;;1.40;0.65;;;25.60;73.70;;;;;;4921949;29;20115;-77
2021/07/17 10:09:28;;;;;;;1.60;0.50;;;25.60;73.50;;;;;;4921735;29;20060;-78
2021/07/17 10:19:36;;;;;;;0.50;0.47;;;25.90;72.70;;;;;;4859767;29;20092;-86
2021/07/17 10:25:02;;;;;;;0.70;0.50;;;26.00;72.50;;;;;;4807871;29;20058;-81
2021/07/17 10:30:57;;;;;;;0.98;0.60;;;26.00;72.40;;;;;;4783591;30;20130;-82
2021/07/17 10:33:45;;;;;;;0.77;0.50;;;25.80;72.10;;;;;;4770349;30;20070;-83
2021/07/17 10:36:33;;;;;;;0.40;0.40;;;25.30;71.70;;;;;;4767228;30;20564;-83
2021/07/17 10:39:13;;;;;;;1.10;0.65;;;26.10;72.10;;;;;;4721543;30;20053;-83
2021/07/17 10:46:17;;;;;;;0.60;0.40;;;26.10;71.70;;;;;;4720547;30;20557;-81
2021/07/17 10:48:53;;;;;;;0.40;0.40;;;26.30;71.80;;;;;;4693057;30;20052;-83
2021/07/17 10:51:30;;;;;;;0.43;0.43;;;26.30;71.40;;;;;;4734555;30;20192;-82
2021/07/17 10:53:58;;;;;;;0.40;0.40;;;26.50;71.20;;;;;;4726587;30;20059;-82
2021/07/17 10:56:37;;;;;;;0.35;0.35;;;26.60;71.30;;;;;;4771067;30;20139;-81
2021/07/17 10:59:10;;;;;;;0.30;0.30;;;26.50;70.90;;;;;;4780255;30;20055;-82
2021/07/17 11:02:04;;;;;;;0.75;0.52;;;26.50;70.90;;;;;;4759534;30;20052;-80
2021/07/17 11:04:52;;;;;;;1.35;0.60;;;26.50;70.60;;;;;;4769901;30;20056;-84
2021/07/17 11:07:34;;;;;;;0.47;0.40;;;26.40;70.70;;;;;;4784226;30;20134;-81
2021/07/17 11:10:09;;;;;;;0.45;0.45;;;26.50;70.70;;;;;;4810047;29;20027;-81
2021/07/17 11:12:46;;;;;;;0.60;0.50;;;26.50;70.70;;;;;;4814602;29;20450;-81
2021/07/17 11:15:33;;;;;;;0.45;0.43;;;26.50;70.40;;;;;;4821737;29;20054;-81
2021/07/17 11:17:58;;;;;;;0.30;0.30;;;26.50;70.30;;;;;;4868149;29;20073;-80
2021/07/17 11:20:31;;;;;;;0.60;0.40;;;26.50;70.50;;;;;;4921938;29;20032;-80
2021/07/17 11:23:08;;;;;;;1.10;0.50;;;26.50;71.20;;;;;;4909571;29;20036;-81
2021/07/17 11:25:35;;;;;;;0.73;0.40;;;26.50;70.30;;;;;;4919773;29;20119;-81
2021/07/17 11:28:01;;;;;;;0.50;0.45;;;26.50;70.10;;;;;;4930752;29;20041;-80
2021/07/17 11:30:34;;;;;;;0.52;0.52;;;26.60;70.10;;;;;;4911890;29;20040;-80
2021/07/17 11:33:15;;;;;;;0.40;0.40;;;26.60;69.90;;;;;;4915947;29;20036;-80
2021/07/17 11:35:44;;;;;;;0.40;0.40;;;26.60;69.80;;;;;;4926017;29;20043;-80
2021/07/17 11:38:13;;;;;;;0.40;0.40;;;26.80;70.00;;;;;;4921103;29;20040;-81
2021/07/17 11:40:39;;;;;;;0.40;0.40;;;26.70;69.80;;;;;;4903581;29;20070;-79
2021/07/17 11:43:08;;;;;;;0.50;0.50;;;26.70;69.70;;;;;;4884559;29;20103;-80
2021/07/17 11:45:35;;;;;;;0.55;0.50;;;26.70;69.60;;;;;;4925127;29;20179;-82
2021/07/17 11:48:10;;;;;;;0.40;0.40;;;26.80;69.50;;;;;;4924558;29;20073;-80
2021/07/17 11:50:38;;;;;;;0.50;0.50;;;26.80;69.40;;;;;;4917523;29;20044;-80
2021/07/17 11:53:20;;;;;;;0.50;0.50;;;26.90;69.10;;;;;;4912464;29;20072;-81
2021/07/17 11:55:59;;;;;;;0.47;0.47;;;26.80;69.00;;;;;;4912401;29;20028;-81
2021/07/17 11:58:25;;;;;;;0.60;0.40;;;26.90;68.90;;;;;;4927362;29;20044;-79
2021/07/17 12:01:01;;;;;;;0.75;0.40;;;26.80;68.70;;;;;;4925016;29;20052;-80
2021/07/17 12:03:27;;;;;;;0.57;0.50;;;26.80;68.60;;;;;;4910752;29;20040;-81
2021/07/17 12:05:54;;;;;;;0.50;0.50;;;26.80;68.80;;;;;;4924068;29;20043;-80
2021/07/17 12:08:22;;;;;;;1.38;0.50;;;26.80;68.80;;;;;;4925536;29;20035;-80
2021/07/17 12:10:49;;;;;;;0.70;0.70;;;26.80;68.70;;;;;;4896286;29;20506;-79
2021/07/17 12:13:20;;;;;;;0.47;0.47;;;26.70;68.50;;;;;;4908550;29;20119;-80
2021/07/17 12:15:46;;;;;;;0.82;0.50;;;26.70;68.60;;;;;;4904358;29;20036;-80
2021/07/17 12:18:15;;;;;;;0.68;0.30;;;26.80;68.50;;;;;;4905496;29;20534;-80
2021/07/17 12:20:45;;;;;;;0.55;0.45;;;27.00;68.60;;;;;;4906957;29;20123;-80
2021/07/17 12:23:15;;;;;;;0.50;0.30;;;26.90;68.40;;;;;;4925053;29;20115;-80
2021/07/17 12:25:43;;;;;;;0.50;0.50;;;26.90;68.30;;;;;;4892509;29;20040;-80
2021/07/17 12:28:22;;;;;;;0.57;0.57;;;26.80;68.20;;;;;;4917872;29;20104;-81
2021/07/17 12:30:57;;;;;;;0.80;0.47;;;26.90;68.20;;;;;;4905844;29;20037;-82
2021/07/17 12:33:32;;;;;;;0.93;0.50;;;27.00;68.30;;;;;;4890274;29;20055;-81
2021/07/17 12:36:12;;;;;;;0.63;0.40;;;26.90;68.10;;;;;;4906565;29;20047;-82
2021/07/17 12:38:44;;;;;;;0.82;0.50;;;26.80;68.20;;;;;;4905044;29;20126;-80
2021/07/17 12:41:13;;;;;;;0.50;0.50;;;26.80;68.30;;;;;;4926110;29;20056;-81
2021/07/17 12:43:45;;;;;;;0.40;0.40;;;26.70;68.20;;;;;;4921211;29;20080;-80
2021/07/17 12:46:18;;;;;;;0.63;0.40;;;26.70;68.90;;;;;;4921425;29;20475;-81
2021/07/17 12:49:05;;;;;;;0.47;0.47;;;26.70;68.20;;;;;;4919740;29;20040;-82
2021/07/17 12:51:34;;;;;;;0.82;0.40;;;26.40;67.80;;;;;;4901197;29;20055;-80
2021/07/17 12:54:04;;;;;;;0.40;0.40;;;26.80;68.00;;;;;;4885977;29;20051;-81
2021/07/17 12:56:36;;;;;;;0.60;0.55;;;26.60;67.80;;;;;;4870138;29;20048;-83
2021/07/17 12:59:07;;;;;;;0.47;0.40;;;26.70;67.80;;;;;;4867258;29;20052;-82
2021/07/17 13:01:35;;;;;;;0.45;0.45;;;26.50;67.50;;;;;;4889188;29;20056;-82
2021/07/17 13:04:03;;;;;;;0.50;0.50;;;26.70;67.60;;;;;;4893363;29;20125;-83
2021/07/17 13:06:32;;;;;;;0.40;0.40;;;26.60;67.40;;;;;;4885583;29;20032;-84
2021/07/17 13:09:00;;;;;;;0.85;0.40;;;27.10;67.50;;;;;;4888320;29;20041;-78
2021/07/17 13:11:28;;;;;;;0.75;0.50;;;26.60;67.00;;;;;;4906060;29;20116;-79